Novokuznetsk, Russia
Current Conditions -  °F | °C
As of 11:30 AM on Monday 20 Oct 2014 (Local Time) from UNEE Reporting Station
Clear Clear  
Wind Chill: 25°   Ceiling: Unl
Heat Index: 34°   Visibility: 6mi
Dew Point: 27°   Wind: 11mph
Humidity: 75%   Direction: 130°SE
Pressure: 29.71"   Gusts: NA
Location:  53.75°N, 87.1°E
Report Text: UNEE 200430Z 13005MPS CAVOK 01/M03 Q1006 NOSIG RMK QFE73123921060
Loading
Personal Weather Stations






























Interactive Weather Map
Tropical Storm Tracking
New forecast layout! Learn more

10-Day Weather Forecast

Advertisements
Track Severe Weather on mobile